Aviosuperficie Corfinio

IT-0475 · Abruzja, Włochy

Historia METAR IT-0475 · Aviosuperficie Corfinio

Poniżej widzisz METAR-y z ostatnich kilku dni. Wybierz rok, aby przeglądać starsze METAR-y, począwszy od roku 2007.

15 lipca 2024

Czas Kod Pogoda Temp. Widoczność Sufit Wiatr METAR/SPECI
19:50
V
32 °C 10 km+ - 060° 060° 3 kt METAR LIBP 151750Z AUTO 06003KT 9999 NCD 32/17 Q1012
19:20
V
32 °C 10 km+ - 050° 050° 4 kt METAR LIBP 151720Z AUTO 05004KT 9999 NCD 32/17 Q1012
18:50
V
32 °C 10 km+ - 040° 040° 4 kt METAR LIBP 151650Z AUTO 04004KT 350V070 9999 NCD 32/16 Q1011
18:20
V
32 °C 10 km+ - 040° 040° 6 kt METAR LIBP 151620Z AUTO 04006KT 9999 NCD 32/18 Q1012
17:50
V
32 °C 10 km+ - 040° 040° 7 kt METAR LIBP 151550Z AUTO 04007KT 350V080 9999 NCD 32/19 Q1012
17:20
V
32 °C 10 km+ - 030° 030° 7 kt METAR LIBP 151520Z AUTO 03007KT 350V070 9999 NCD 32/18 Q1012
16:50
V
32 °C 10 km+ - 030° 030° 7 kt METAR LIBP 151450Z AUTO 03007KT 340V070 9999 NCD 32/19 Q1012
16:20
V
33 °C 10 km+ - 040° 040° 8 kt METAR LIBP 151420Z AUTO 04008KT 360V090 9999 NCD 33/18 Q1012
15:50
V
33 °C 10 km+ - 040° 040° 8 kt METAR LIBP 151350Z AUTO 04008KT 9999 NCD 33/17 Q1012
15:20
V
32 °C 10 km+ - 060° 060° 9 kt METAR LIBP 151320Z AUTO 06009KT 020V100 9999 NCD 32/20 Q1012
14:50
V
33 °C 10 km+ - 050° 050° 10 kt METAR LIBP 151250Z AUTO 05010KT 9999 NCD 33/17 Q1012
14:20
V
33 °C 10 km+ - 040° 040° 10 kt METAR LIBP 151220Z AUTO 04010KT 020V080 9999 NCD 33/19 Q1012
13:50
V
34 °C 10 km+ - 070° 070° 10 kt METAR LIBP 151150Z AUTO 07010KT 9999 NCD 34/18 Q1012
13:20
V
33 °C 10 km+ - 060° 060° 10 kt METAR LIBP 151120Z AUTO 06010KT 9999 NCD 33/18 Q1012
12:50
V
32 °C 10 km+ - 060° 060° 11 kt METAR LIBP 151050Z AUTO 06011KT 9999 NCD 32/22 Q1012
12:20
V
31 °C 10 km+ - 050° 050° 11 kt METAR LIBP 151020Z AUTO 05011KT 020V080 9999 NCD 31/22 Q1012
11:50
V
32 °C 10 km+ - 050° 050° 9 kt METAR LIBP 150950Z AUTO 05009KT 9999 NCD 32/21 Q1012
11:20
V
32 °C 10 km+ - 060° 060° 9 kt METAR LIBP 150920Z AUTO 06009KT 030V090 9999 NCD 32/20 Q1012
10:50
V
32 °C 10 km+ - 070° 070° 9 kt METAR LIBP 150850Z AUTO 07009KT 040V100 9999 NCD 32/19 Q1012
10:20
V
32 °C 10 km+ - 040° 040° 7 kt METAR LIBP 150820Z AUTO 04007KT 010V070 9999 NCD 32/18 Q1012
09:50
V
33 °C 10 km+ - Var Var 2 kt METAR LIBP 150750Z AUTO VRB02KT 9999 NCD 33/19 Q1012
09:20
V
32 °C 10 km+ - Var Var 2 kt METAR LIBP 150720Z AUTO VRB02KT 9999 NCD 32/18 Q1013
08:50
V
30 °C 10 km+ - 220° 220° 4 kt METAR LIBP 150650Z AUTO 22004KT 180V260 9999 NCD 30/18 Q1013
08:20
V
28 °C 10 km+ - 230° 230° 5 kt METAR LIBP 150620Z AUTO 23005KT 200V260 9999 NCD 28/18 Q1013
07:50
V
26 °C 10 km+ - 250° 250° 4 kt METAR LIBP 150550Z AUTO 25004KT 220V280 9999 NCD 26/19 Q1013
07:20
V
24 °C 10 km+ - 230° 230° 4 kt METAR LIBP 150520Z AUTO 23004KT 9999 NCD 24/20 Q1013
06:50
V
22 °C 10 km+ - 220° 220° 5 kt METAR LIBP 150450Z AUTO 22005KT 9999 NCD 22/21 Q1013
06:20
V
21 °C 10 km+ - 220° 220° 4 kt METAR LIBP 150420Z AUTO 22004KT 9999 NCD 21/21 Q1012
05:50
V
22 °C 10 km+ - 230° 230° 3 kt METAR LIBP 150350Z AUTO 23003KT 9999 NCD 22/21 Q1013
05:20
V
21 °C 10 km+ - 200° 200° 5 kt METAR LIBP 150320Z AUTO 20005KT 9999 NCD 21/21 Q1012
04:50
V
21 °C 10 km+ - 210° 210° 4 kt METAR LIBP 150250Z AUTO 21004KT 9999 NCD 21/21 Q1012
04:20
V
22 °C 10 km+ - 240° 240° 3 kt METAR LIBP 150220Z AUTO 24003KT 9999 NCD 22/21 Q1012
03:50
V
22 °C 10 km+ - 220° 220° 4 kt METAR LIBP 150150Z AUTO 22004KT 9999 NCD 22/22 Q1012
03:20
V
22 °C 10 km+ - 200° 200° 5 kt METAR LIBP 150120Z AUTO 20005KT 9999 NCD 22/22 Q1012
02:50
V
23 °C 10 km+ - 220° 220° 3 kt METAR LIBP 150050Z AUTO 22003KT 9999 NCD 23/22 Q1012
02:20
V
23 °C 10 km+ - 250° 250° 4 kt METAR LIBP 150020Z AUTO 25004KT 9999 NCD 23/22 Q1012
01:50
V
23 °C 10 km+ - 200° 200° 6 kt METAR LIBP 142350Z AUTO 20006KT 9999 NCD 23/23 Q1012
01:20
V
24 °C 10 km+ - 250° 250° 3 kt METAR LIBP 142320Z AUTO 25003KT 9999 NCD 24/23 Q1012
00:50
V
24 °C 10 km+ - 230° 230° 4 kt METAR LIBP 142250Z AUTO 23004KT 9999 NCD 24/22 Q1012
00:20
V
25 °C 10 km+ - 250° 250° 4 kt METAR LIBP 142220Z AUTO 25004KT 9999 NCD 25/22 Q1013

14 lipca 2024

Czas Kod Pogoda Temp. Widoczność Sufit Wiatr METAR/SPECI
23:50
V
25 °C 10 km+ - 230° 230° 4 kt METAR LIBP 142150Z AUTO 23004KT 9999 NCD 25/23 Q1012
23:20
V
25 °C 10 km+ - 220° 220° 4 kt METAR LIBP 142120Z AUTO 22004KT 9999 NCD 25/23 Q1013
22:50
V
25 °C 10 km+ - Var Var 2 kt METAR LIBP 142050Z AUTO VRB02KT 9999 NCD 25/25 Q1013
22:20
V
26 °C 10 km+ - 350° 350° 2 kt METAR LIBP 142020Z AUTO 35002KT 9999 NCD 26/23 Q1013
21:50
V
27 °C 10 km+ - Var Var 1 kt METAR LIBP 141950Z AUTO VRB01KT 9999 NCD 27/21 Q1013
21:20
V
28 °C 10 km+ - 080° 080° 4 kt METAR LIBP 141920Z AUTO 08004KT 9999 NCD 28/22 Q1012
20:50
V
28 °C 10 km+ - 080° 080° 4 kt METAR LIBP 141850Z AUTO 08004KT 9999 NCD 28/22 Q1012
20:20
V
30 °C 10 km+ - 080° 080° 5 kt METAR LIBP 141820Z AUTO 08005KT 9999 NCD 30/20 Q1012
19:50
V
30 °C 10 km+ - 070° 070° 6 kt METAR LIBP 141750Z AUTO 07006KT 9999 NCD 30/21 Q1012
19:20
V
31 °C 10 km+ - 080° 080° 5 kt METAR LIBP 141720Z AUTO 08005KT 9999 NCD 31/21 Q1012
18:50
V
31 °C 10 km+ - 080° 080° 6 kt METAR LIBP 141650Z AUTO 08006KT 050V120 9999 NCD 31/20 Q1011
18:20
V
32 °C 10 km+ - 100° 100° 6 kt METAR LIBP 141620Z AUTO 10006KT 080V140 9999 NCD 32/20 Q1011
17:50
V
31 °C 10 km+ - 080° 080° 7 kt METAR LIBP 141550Z AUTO 08007KT 050V120 9999 NCD 31/22 Q1011
17:20
V
31 °C 10 km+ - 100° 100° 7 kt METAR LIBP 141520Z AUTO 10007KT 060V130 9999 NCD 31/23 Q1012
16:50
V
32 °C 10 km+ - 100° 100° 8 kt METAR LIBP 141450Z AUTO 10008KT 050V130 9999 NCD 32/22 Q1012
16:20
V
32 °C 10 km+ - 070° 070° 9 kt METAR LIBP 141420Z AUTO 07009KT 040V110 9999 NCD 32/22 Q1012
15:50
V
32 °C 10 km+ - 070° 070° 11 kt METAR LIBP 141350Z AUTO 07011KT 040V100 9999 NCD 32/23 Q1012
15:20
V
32 °C 10 km+ - 060° 060° 10 kt METAR LIBP 141320Z AUTO 06010KT 9999 NCD 32/21 Q1012
14:50
V
32 °C 10 km+ - 070° 070° 12 kt METAR LIBP 141250Z AUTO 07012KT 9999 NCD 32/20 Q1012
14:20
V
32 °C 10 km+ - 050° 050° 11 kt METAR LIBP 141220Z AUTO 05011KT 9999 NCD 32/19 Q1012
13:50
V
33 °C 10 km+ - 050° 050° 12 kt METAR LIBP 141150Z AUTO 05012KT 9999 NCD 33/18 Q1012
13:20
V
32 °C 10 km+ - 070° 070° 9 kt METAR LIBP 141120Z AUTO 07009KT 030V110 9999 NCD 32/21 Q1012
12:50
V
32 °C 10 km+ - 050° 050° 10 kt METAR LIBP 141050Z AUTO 05010KT 9999 NCD 32/20 Q1012
12:20
V
32 °C 10 km+ - 060° 060° 9 kt METAR LIBP 141020Z AUTO 06009KT 030V100 9999 NCD 32/24 Q1012
11:50
V
32 °C 10 km+ - 060° 060° 7 kt METAR LIBP 140950Z AUTO 06007KT 030V090 9999 NCD 32/24 Q1012
11:20
V
32 °C 10 km+ - 080° 080° 7 kt METAR LIBP 140920Z AUTO 08007KT 050V110 9999 NCD 32/23 Q1012
10:50
V
31 °C 10 km+ - 060° 060° 6 kt METAR LIBP 140850Z AUTO 06006KT 030V110 9999 FEW210/// 31/23 Q1012
10:20
V
31 °C 10 km+ - 050° 050° 5 kt METAR LIBP 140820Z AUTO 05005KT 350V110 9999 NCD 31/24 Q1012
09:50
V
31 °C 10 km+ - 050° 050° 4 kt METAR LIBP 140750Z AUTO 05004KT 350V120 9999 NCD 31/23 Q1012
09:20
V
31 °C 10 km+ - 030° 030° 4 kt METAR LIBP 140720Z AUTO 03004KT 340V070 9999 NCD 31/23 Q1012
08:50
V
30 °C 10 km+ - Var Var 2 kt METAR LIBP 140650Z AUTO VRB02KT 9999 NCD 30/20 Q1012
08:20
V
29 °C 10 km+ - Var Var 2 kt METAR LIBP 140620Z AUTO VRB02KT 9999 NCD 29/19 Q1012
07:50
V
26 °C 10 km+ - Var Var 2 kt METAR LIBP 140550Z AUTO VRB02KT 9999 NCD 26/21 Q1012
07:20
V
25 °C 10 km+ - 220° 220° 4 kt METAR LIBP 140520Z AUTO 22004KT 9999 NCD 25/22 Q1012
06:50
V
24 °C 10 km+ - 230° 230° 4 kt METAR LIBP 140450Z AUTO 23004KT 9999 NCD 24/24 Q1011
06:20
V
22 °C 10 km+ - 210° 210° 4 kt METAR LIBP 140420Z AUTO 21004KT 9999 NCD 22/22 Q1011
05:50
V
22 °C 10 km+ - 230° 230° 4 kt METAR LIBP 140350Z AUTO 23004KT 9999 NCD 22/22 Q1011
05:20
V
23 °C 10 km+ - 230° 230° 4 kt METAR LIBP 140320Z AUTO 23004KT 9999 NCD 23/23 Q1011
04:50
V
23 °C 10 km+ - 230° 230° 4 kt METAR LIBP 140250Z AUTO 23004KT 9999 NCD 23/23 Q1010
04:20
V
23 °C 10 km+ - 210° 210° 4 kt METAR LIBP 140220Z AUTO 21004KT 9999 NCD 23/23 Q1010
03:50
V
23 °C 10 km+ - 240° 240° 4 kt METAR LIBP 140150Z AUTO 24004KT 9999 NCD 23/23 Q1010
03:20
V
24 °C 10 km+ - 240° 240° 4 kt METAR LIBP 140120Z AUTO 24004KT 9999 NCD 24/24 Q1010
02:50
V
24 °C 9 km - 210° 210° 3 kt METAR LIBP 140050Z AUTO 21003KT 9000 NCD 24/24 Q1010
02:20
V
24 °C 9 km - 220° 220° 6 kt METAR LIBP 140020Z AUTO 22006KT 9000 NCD 24/24 Q1010
01:50
V
25 °C 10 km+ - Var Var 2 kt METAR LIBP 132350Z AUTO VRB02KT 9999 NCD 25/25 Q1010
01:20
V
26 °C 10 km+ - Var Var 1 kt METAR LIBP 132320Z AUTO VRB01KT 9999 NCD 26/26 Q1010
00:50
V
26 °C 10 km+ - 260° 260° 3 kt METAR LIBP 132250Z AUTO 26003KT 220V300 9999 NCD 26/26 Q1010
00:20
V
26 °C 10 km+ - 210° 210° 4 kt METAR LIBP 132220Z AUTO 21004KT 9999 NCD 26/26 Q1010

13 lipca 2024

Czas Kod Pogoda Temp. Widoczność Sufit Wiatr METAR/SPECI
23:50
V
26 °C 10 km+ - Var Var 1 kt METAR LIBP 132150Z AUTO VRB01KT 9999 NCD 26/26 Q1010
23:20
V
27 °C 10 km+ - 320° 320° 3 kt METAR LIBP 132120Z AUTO 32003KT 9999 NCD 27/27 Q1010
22:50
V
27 °C 10 km+ - Var Var 1 kt METAR LIBP 132050Z AUTO VRB01KT 9999 NCD 27/27 Q1009
22:20
V
28 °C 10 km+ - 330° 330° 2 kt METAR LIBP 132020Z AUTO 33002KT 9999 NCD 28/28 Q1010
21:50
V
28 °C 10 km+ - 010° 010° 4 kt METAR LIBP 131950Z AUTO 01004KT 9999 NCD 28/27 Q1009
21:20
V
29 °C 10 km+ - 030° 030° 4 kt METAR LIBP 131920Z AUTO 03004KT 9999 NCD 29/26 Q1009
20:50
V
29 °C 10 km+ - 040° 040° 5 kt METAR LIBP 131850Z AUTO 04005KT 9999 NCD 29/26 Q1009
20:20
V
29 °C 10 km+ - 040° 040° 5 kt METAR LIBP 131820Z AUTO 04005KT 9999 NCD 29/26 Q1009
19:50
V
30 °C 10 km+ - 050° 050° 4 kt METAR LIBP 131750Z AUTO 05004KT 030V090 9999 NCD 30/26 Q1009
19:20
V
31 °C 10 km+ - 060° 060° 5 kt METAR LIBP 131720Z AUTO 06005KT 9999 NCD 31/25 Q1009
18:50
V
31 °C 10 km+ - 070° 070° 6 kt METAR LIBP 131650Z AUTO 07006KT 030V110 9999 NCD 31/25 Q1009
18:20
V
31 °C 10 km+ - 050° 050° 7 kt METAR LIBP 131620Z AUTO 05007KT 9999 NCD 31/25 Q1009
17:50
V
31 °C 10 km+ - 040° 040° 6 kt METAR LIBP 131550Z AUTO 04006KT 9999 FEW130/// 31/25 Q1008
17:20
V
31 °C 10 km+ - 030° 030° 6 kt METAR LIBP 131520Z AUTO 03006KT 9999 FEW110/// 31/25 Q1008
16:50
V
32 °C 10 km+ 11.000 ft 050° 050° 7 kt METAR LIBP 131450Z AUTO 05007KT 010V090 9999 BKN110/// 32/25 Q1008
16:20
V
32 °C 10 km+ 11.000 ft 050° 050° 8 kt METAR LIBP 131420Z AUTO 05008KT 020V090 9999 BKN110/// 32/23 Q1009
15:50
V
33 °C 10 km+ - 050° 050° 5 kt METAR LIBP 131350Z AUTO 05005KT 340V100 9999 NCD 33/23 Q1009
15:20
V
32 °C 10 km+ - 060° 060° 8 kt METAR LIBP 131320Z AUTO 06008KT 030V090 9999 NCD 32/23 Q1009
14:50
V
33 °C 10 km+ - 060° 060° 8 kt METAR LIBP 131250Z AUTO 06008KT 020V090 9999 FEW240/// 33/24 Q1009
14:20
V
33 °C 10 km+ - 040° 040° 10 kt METAR LIBP 131220Z AUTO 04010KT 9999 NCD 33/23 Q1009
13:50
V
34 °C 10 km+ - 050° 050° 10 kt METAR LIBP 131150Z AUTO 05010KT 9999 NCD 34/21 Q1009
13:20
V
34 °C 10 km+ - 040° 040° 10 kt METAR LIBP 131120Z AUTO 04010KT 9999 NCD 34/19 Q1009
12:50
V
34 °C 10 km+ - 040° 040° 10 kt METAR LIBP 131050Z AUTO 04010KT 9999 NCD 34/17 Q1009
12:20
V
34 °C 10 km+ - 030° 030° 9 kt METAR LIBP 131020Z AUTO 03009KT 9999 NCD 34/18 Q1009
11:50
V
34 °C 10 km+ - 030° 030° 7 kt METAR LIBP 130950Z AUTO 03007KT 360V070 9999 NCD 34/20 Q1009
11:20
V
34 °C 10 km+ - 050° 050° 7 kt METAR LIBP 130920Z AUTO 05007KT 350V080 9999 NCD 34/19 Q1009
10:50
V
34 °C 10 km+ - 050° 050° 7 kt METAR LIBP 130850Z AUTO 05007KT 020V080 9999 NCD 34/19 Q1009
10:20
V
34 °C 10 km+ - 030° 030° 5 kt METAR LIBP 130820Z AUTO 03005KT 290V080 9999 NCD 34/20 Q1009
09:50
V
33 °C 10 km+ - 040° 040° 5 kt METAR LIBP 130750Z AUTO 04005KT 360V080 9999 NCD 33/19 Q1009
09:20
V
33 °C 10 km+ - 050° 050° 4 kt METAR LIBP 130720Z AUTO 05004KT 020V100 9999 NCD 33/16 Q1010
08:50
V
31 °C 10 km+ - 040° 040° 4 kt METAR LIBP 130650Z AUTO 04004KT 010V070 9999 NCD 31/19 Q1010
08:20
V
30 °C 10 km+ - 040° 040° 4 kt METAR LIBP 130620Z AUTO 04004KT 9999 NCD 30/20 Q1009
07:50
V
27 °C 10 km+ - Var Var 2 kt METAR LIBP 130550Z AUTO VRB02KT 9999 NCD 27/20 Q1009
Zgłoś zmianę